sensor_id;sensor_type;location;lat;lon;timestamp;pressure;altitude;pressure_sealevel;temperature;humidity
16200;BME280;8207;52.494;4.654;2024-02-26T00:01:23;100122.03;;;4.38;100.00
16200;BME280;8207;52.494;4.654;2024-02-26T00:03:48;100115.31;;;4.33;100.00
16200;BME280;8207;52.494;4.654;2024-02-26T00:06:14;100113.50;;;4.34;100.00
16200;BME280;8207;52.494;4.654;2024-02-26T00:08:39;100115.31;;;4.33;100.00
16200;BME280;8207;52.494;4.654;2024-02-26T00:11:04;100122.84;;;4.38;100.00
16200;BME280;8207;52.494;4.654;2024-02-26T00:13:30;100124.22;;;4.42;100.00
16200;BME280;8207;52.494;4.654;2024-02-26T00:15:55;100118.94;;;4.32;100.00
16200;BME280;8207;52.494;4.654;2024-02-26T00:18:20;100125.09;;;4.33;100.00
16200;BME280;8207;52.494;4.654;2024-02-26T00:20:46;100127.34;;;4.38;100.00
16200;BME280;8207;52.494;4.654;2024-02-26T00:23:11;100134.63;;;4.36;100.00
16200;BME280;8207;52.494;4.654;2024-02-26T00:25:37;100123.16;;;4.35;100.00
16200;BME280;8207;52.494;4.654;2024-02-26T00:28:04;100130.59;;;4.31;100.00
16200;BME280;8207;52.494;4.654;2024-02-26T00:30:29;100123.19;;;4.25;100.00
16200;BME280;8207;52.494;4.654;2024-02-26T00:32:55;100132.88;;;4.26;100.00
16200;BME280;8207;52.494;4.654;2024-02-26T00:35:20;100130.75;;;4.30;100.00
16200;BME280;8207;52.494;4.654;2024-02-26T00:37:46;100141.25;;;4.31;100.00
16200;BME280;8207;52.494;4.654;2024-02-26T00:40:11;100133.16;;;4.23;100.00
16200;BME280;8207;52.494;4.654;2024-02-26T00:42:37;100140.53;;;4.29;100.00
16200;BME280;8207;52.494;4.654;2024-02-26T00:45:02;100136.66;;;4.24;100.00
16200;BME280;8207;52.494;4.654;2024-02-26T00:47:31;100140.06;;;4.16;100.00
16200;BME280;8207;52.494;4.654;2024-02-26T00:49:56;100142.28;;;4.21;100.00
16200;BME280;8207;52.494;4.654;2024-02-26T00:52:21;100140.75;;;4.18;100.00
16200;BME280;8207;52.494;4.654;2024-02-26T00:54:47;100140.06;;;4.16;100.00
16200;BME280;8207;52.494;4.654;2024-02-26T00:57:12;100132.19;;;4.15;100.00
16200;BME280;8207;52.494;4.654;2024-02-26T00:59:37;100144.22;;;4.19;100.00
16200;BME280;8207;52.494;4.654;2024-02-26T01:02:03;100135.69;;;4.15;100.00
16200;BME280;8207;52.494;4.654;2024-02-26T01:04:30;100142.19;;;4.13;100.00
16200;BME280;8207;52.494;4.654;2024-02-26T01:06:56;100145.13;;;4.09;100.00
16200;BME280;8207;52.494;4.654;2024-02-26T01:09:21;100147.91;;;4.08;100.00
16200;BME280;8207;52.494;4.654;2024-02-26T01:11:46;100151.28;;;4.10;100.00
16200;BME280;8207;52.494;4.654;2024-02-26T01:14:12;100145.69;;;4.13;100.00
16200;BME280;8207;52.494;4.654;2024-02-26T01:16:37;100154.66;;;4.12;100.00
16200;BME280;8207;52.494;4.654;2024-02-26T01:19:02;100153.25;;;4.08;100.00
16200;BME280;8207;52.494;4.654;2024-02-26T01:21:28;100156.91;;;4.07;100.00
16200;BME280;8207;52.494;4.654;2024-02-26T01:23:54;100161.81;;;4.02;100.00
16200;BME280;8207;52.494;4.654;2024-02-26T01:26:19;100162.13;;;3.99;100.00
16200;BME280;8207;52.494;4.654;2024-02-26T01:28:47;100164.50;;;4.02;100.00
16200;BME280;8207;52.494;4.654;2024-02-26T01:31:13;100164.88;;;4.07;100.00
16200;BME280;8207;52.494;4.654;2024-02-26T01:33:38;100167.84;;;4.04;100.00
16200;BME280;8207;52.494;4.654;2024-02-26T01:36:03;100168.97;;;4.01;100.00
16200;BME280;8207;52.494;4.654;2024-02-26T01:38:29;100167.16;;;4.02;100.00
16200;BME280;8207;52.494;4.654;2024-02-26T01:40:54;100168.13;;;4.01;100.00
16200;BME280;8207;52.494;4.654;2024-02-26T01:43:20;100171.78;;;4.00;100.00
16200;BME280;8207;52.494;4.654;2024-02-26T01:45:45;100171.22;;;3.96;100.00
16200;BME280;8207;52.494;4.654;2024-02-26T01:48:10;100177.25;;;3.98;100.00
16200;BME280;8207;52.494;4.654;2024-02-26T01:50:36;100178.09;;;3.99;100.00
16200;BME280;8207;52.494;4.654;2024-02-26T01:53:03;100168.72;;;3.95;100.00
16200;BME280;8207;52.494;4.654;2024-02-26T01:55:29;100176.69;;;3.95;100.00
16200;BME280;8207;52.494;4.654;2024-02-26T01:57:55;100172.22;;;3.95;100.00
16200;BME280;8207;52.494;4.654;2024-02-26T02:00:21;100178.38;;;3.96;100.00
16200;BME280;8207;52.494;4.654;2024-02-26T02:02:47;100174.31;;;3.92;100.00
16200;BME280;8207;52.494;4.654;2024-02-26T02:05:15;100162.69;;;3.93;100.00
16200;BME280;8207;52.494;4.654;2024-02-26T02:07:43;100172.94;;;3.88;100.00
16200;BME280;8207;52.494;4.654;2024-02-26T02:10:09;100171.22;;;3.87;100.00
16200;BME280;8207;52.494;4.654;2024-02-26T02:12:35;100170.41;;;3.86;100.00
16200;BME280;8207;52.494;4.654;2024-02-26T02:15:01;100174.06;;;3.85;100.00
16200;BME280;8207;52.494;4.654;2024-02-26T02:17:27;100174.06;;;3.85;100.00
16200;BME280;8207;52.494;4.654;2024-02-26T02:19:53;100176.56;;;3.87;100.00
16200;BME280;8207;52.494;4.654;2024-02-26T02:22:18;100172.38;;;3.84;100.00
16200;BME280;8207;52.494;4.654;2024-02-26T02:24:45;100183.88;;;3.84;100.00
16200;BME280;8207;52.494;4.654;2024-02-26T02:27:10;100186.97;;;3.80;100.00
16200;BME280;8207;52.494;4.654;2024-02-26T02:29:36;100201.66;;;3.74;100.00
16200;BME280;8207;52.494;4.654;2024-02-26T02:32:03;100200.94;;;3.72;100.00
16200;BME280;8207;52.494;4.654;2024-02-26T02:34:28;100204.59;;;3.81;100.00
16200;BME280;8207;52.494;4.654;2024-02-26T02:36:54;100207.53;;;3.78;100.00
16200;BME280;8207;52.494;4.654;2024-02-26T02:39:20;100215.41;;;3.70;100.00
16200;BME280;8207;52.494;4.654;2024-02-26T02:41:46;100213.31;;;3.73;100.00
16200;BME280;8207;52.494;4.654;2024-02-26T02:44:11;100225.34;;;3.77;100.00
16200;BME280;8207;52.494;4.654;2024-02-26T02:46:37;100217.06;;;3.71;100.00
16200;BME280;8207;52.494;4.654;2024-02-26T02:49:03;100219.56;;;3.72;100.00
16200;BME280;8207;52.494;4.654;2024-02-26T02:51:28;100223.38;;;3.70;100.00
16200;BME280;8207;52.494;4.654;2024-02-26T02:53:53;100224.34;;;3.69;100.00
16200;BME280;8207;52.494;4.654;2024-02-26T02:56:19;100218.63;;;3.73;100.00
16200;BME280;8207;52.494;4.654;2024-02-26T02:58:44;100223.50;;;3.68;100.00
16200;BME280;8207;52.494;4.654;2024-02-26T03:01:10;100224.78;;;3.64;100.00
16200;BME280;8207;52.494;4.654;2024-02-26T03:03:35;100225.06;;;3.71;100.00
16200;BME280;8207;52.494;4.654;2024-02-26T03:06:02;100232.47;;;3.67;100.00
16200;BME280;8207;52.494;4.654;2024-02-26T03:08:28;100236.69;;;3.70;100.00
16200;BME280;8207;52.494;4.654;2024-02-26T03:10:54;100231.50;;;3.68;100.00
16200;BME280;8207;52.494;4.654;2024-02-26T03:13:19;100246.78;;;3.66;100.00
16200;BME280;8207;52.494;4.654;2024-02-26T03:15:45;100241.44;;;3.66;100.00
16200;BME280;8207;52.494;4.654;2024-02-26T03:18:10;100248.72;;;3.64;100.00
16200;BME280;8207;52.494;4.654;2024-02-26T03:20:35;100249.44;;;3.66;100.00
16200;BME280;8207;52.494;4.654;2024-02-26T03:23:02;100246.22;;;3.63;100.00
16200;BME280;8207;52.494;4.654;2024-02-26T03:25:27;100252.66;;;3.60;100.00
16200;BME280;8207;52.494;4.654;2024-02-26T03:27:53;100256.03;;;3.62;100.00
16200;BME280;8207;52.494;4.654;2024-02-26T03:30:18;100250.28;;;3.67;100.00
16200;BME280;8207;52.494;4.654;2024-02-26T03:32:43;100256.16;;;3.70;100.00
16200;BME280;8207;52.494;4.654;2024-02-26T03:35:09;100257.69;;;3.63;100.00
16200;BME280;8207;52.494;4.654;2024-02-26T03:37:34;100258.38;;;3.65;100.00
16200;BME280;8207;52.494;4.654;2024-02-26T03:40:00;100259.94;;;3.68;100.00
16200;BME280;8207;52.494;4.654;2024-02-26T03:42:26;100260.34;;;3.63;100.00
16200;BME280;8207;52.494;4.654;2024-02-26T03:44:52;100274.06;;;3.68;100.00
16200;BME280;8207;52.494;4.654;2024-02-26T03:47:17;100272.78;;;3.72;100.00
16200;BME280;8207;52.494;4.654;2024-02-26T03:49:42;100266.50;;;3.64;100.00
16200;BME280;8207;52.494;4.654;2024-02-26T03:52:08;100266.22;;;3.67;100.00
16200;BME280;8207;52.494;4.654;2024-02-26T03:54:33;100269.19;;;3.73;100.00
16200;BME280;8207;52.494;4.654;2024-02-26T03:56:58;100281.09;;;3.69;100.00
16200;BME280;8207;52.494;4.654;2024-02-26T03:59:24;100274.91;;;3.69;100.00
16200;BME280;8207;52.494;4.654;2024-02-26T04:01:50;100284.59;;;3.70;100.00
16200;BME280;8207;52.494;4.654;2024-02-26T04:04:16;100290.75;;;3.70;100.00
16200;BME280;8207;52.494;4.654;2024-02-26T04:06:45;100285.41;;;3.70;100.00
16200;BME280;8207;52.494;4.654;2024-02-26T04:09:12;100291.72;;;3.69;100.00
16200;BME280;8207;52.494;4.654;2024-02-26T04:11:37;100289.22;;;3.77;100.00
16200;BME280;8207;52.494;4.654;2024-02-26T04:14:03;100294.81;;;3.74;100.00
16200;BME280;8207;52.494;4.654;2024-02-26T04:16:29;100304.59;;;3.74;100.00
16200;BME280;8207;52.494;4.654;2024-02-26T04:18:54;100301.38;;;3.70;100.00
16200;BME280;8207;52.494;4.654;2024-02-26T04:21:20;100300.66;;;3.68;100.00
16200;BME280;8207;52.494;4.654;2024-02-26T04:23:45;100301.38;;;3.70;100.00
16200;BME280;8207;52.494;4.654;2024-02-26T04:26:11;100307.69;;;3.69;100.00
16200;BME280;8207;52.494;4.654;2024-02-26T04:28:36;100300.94;;;3.65;100.00
16200;BME280;8207;52.494;4.654;2024-02-26T04:31:01;100306.16;;;3.67;100.00
16200;BME280;8207;52.494;4.654;2024-02-26T04:33:27;100309.09;;;3.73;100.00
16200;BME280;8207;52.494;4.654;2024-02-26T04:35:52;100311.75;;;3.73;100.00
16200;BME280;8207;52.494;4.654;2024-02-26T04:38:18;100317.09;;;3.73;100.00
16200;BME280;8207;52.494;4.654;2024-02-26T04:40:44;100320.69;;;3.72;100.00
16200;BME280;8207;52.494;4.654;2024-02-26T04:43:09;100320.69;;;3.72;100.00
16200;BME280;8207;52.494;4.654;2024-02-26T04:45:34;100321.41;;;3.74;100.00
16200;BME280;8207;52.494;4.654;2024-02-26T04:48:00;100318.91;;;3.73;100.00
16200;BME280;8207;52.494;4.654;2024-02-26T04:50:25;100324.34;;;3.71;100.00
16200;BME280;8207;52.494;4.654;2024-02-26T04:52:51;100330.66;;;3.70;100.00
16200;BME280;8207;52.494;4.654;2024-02-26T04:55:16;100330.94;;;3.67;100.00
16200;BME280;8207;52.494;4.654;2024-02-26T04:57:42;100341.31;;;3.70;100.00
16200;BME280;8207;52.494;4.654;2024-02-26T05:00:08;100348.19;;;3.73;100.00
16200;BME280;8207;52.494;4.654;2024-02-26T05:02:33;100342.72;;;3.74;100.00
16200;BME280;8207;52.494;4.654;2024-02-26T05:05:04;100347.19;;;3.74;100.00
16200;BME280;8207;52.494;4.654;2024-02-26T05:07:29;100358.66;;;3.65;100.00
16200;BME280;8207;52.494;4.654;2024-02-26T05:09:54;100358.38;;;3.68;100.00
16200;BME280;8207;52.494;4.654;2024-02-26T05:12:21;100356.13;;;3.63;100.00
16200;BME280;8207;52.494;4.654;2024-02-26T05:14:46;100346.75;;;3.59;100.00
16200;BME280;8207;52.494;4.654;2024-02-26T05:17:11;100361.72;;;3.60;100.00
16200;BME280;8207;52.494;4.654;2024-02-26T05:19:37;100363.84;;;3.66;100.00
16200;BME280;8207;52.494;4.654;2024-02-26T05:22:02;100359.63;;;3.64;100.00
16200;BME280;8207;52.494;4.654;2024-02-26T05:24:27;100366.06;;;3.61;100.00
16200;BME280;8207;52.494;4.654;2024-02-26T05:26:53;100360.59;;;3.53;100.00
16200;BME280;8207;52.494;4.654;2024-02-26T05:29:20;100362.84;;;3.57;100.00
16200;BME280;8207;52.494;4.654;2024-02-26T05:31:45;100370.81;;;3.57;100.00
16200;BME280;8207;52.494;4.654;2024-02-26T05:34:10;100378.69;;;3.59;100.00
16200;BME280;8207;52.494;4.654;2024-02-26T05:36:36;100376.03;;;3.59;100.00
16200;BME280;8207;52.494;4.654;2024-02-26T05:39:01;100381.06;;;3.62;100.00
16200;BME280;8207;52.494;4.654;2024-02-26T05:41:29;100388.91;;;3.64;100.00
16200;BME280;8207;52.494;4.654;2024-02-26T05:43:54;100388.06;;;3.63;100.00
16200;BME280;8207;52.494;4.654;2024-02-26T05:46:20;100396.16;;;3.61;100.00
16200;BME280;8207;52.494;4.654;2024-02-26T05:48:50;100397.31;;;3.69;100.00
16200;BME280;8207;52.494;4.654;2024-02-26T05:51:16;100402.78;;;3.67;100.00
16200;BME280;8207;52.494;4.654;2024-02-26T05:53:41;100412.13;;;3.61;100.00
16200;BME280;8207;52.494;4.654;2024-02-26T05:56:07;100420.69;;;3.65;100.00
16200;BME280;8207;52.494;4.654;2024-02-26T05:58:32;100420.84;;;3.64;100.00
16200;BME280;8207;52.494;4.654;2024-02-26T06:00:58;100431.47;;;3.64;100.00
16200;BME280;8207;52.494;4.654;2024-02-26T06:03:23;100435.97;;;3.63;100.00
16200;BME280;8207;52.494;4.654;2024-02-26T06:05:49;100429.81;;;3.63;100.00
16200;BME280;8207;52.494;4.654;2024-02-26T06:08:14;100440.44;;;3.63;100.00
16200;BME280;8207;52.494;4.654;2024-02-26T06:10:39;100432.19;;;3.66;100.00
16200;BME280;8207;52.494;4.654;2024-02-26T06:13:05;100436.53;;;3.67;100.00
16200;BME280;8207;52.494;4.654;2024-02-26T06:15:30;100438.09;;;3.69;100.00
16200;BME280;8207;52.494;4.654;2024-02-26T06:17:56;100450.53;;;3.69;100.00
16200;BME280;8207;52.494;4.654;2024-02-26T06:20:21;100455.16;;;3.67;100.00
16200;BME280;8207;52.494;4.654;2024-02-26T06:22:46;100453.75;;;3.63;100.00
16200;BME280;8207;52.494;4.654;2024-02-26T06:25:12;100455.00;;;3.58;100.00
16200;BME280;8207;52.494;4.654;2024-02-26T06:27:37;100466.06;;;3.64;100.00
16200;BME280;8207;52.494;4.654;2024-02-26T06:30:03;100464.13;;;3.66;100.00
16200;BME280;8207;52.494;4.654;2024-02-26T06:32:28;100463.25;;;3.65;100.00
16200;BME280;8207;52.494;4.654;2024-02-26T06:34:54;100463.97;;;3.67;100.00
16200;BME280;8207;52.494;4.654;2024-02-26T06:37:20;100474.63;;;3.67;100.00
16200;BME280;8207;52.494;4.654;2024-02-26T06:39:45;100476.03;;;3.71;100.00
16200;BME280;8207;52.494;4.654;2024-02-26T06:42:11;100479.16;;;3.76;100.00
16200;BME280;8207;52.494;4.654;2024-02-26T06:44:36;100479.25;;;3.75;100.00
16200;BME280;8207;52.494;4.654;2024-02-26T06:47:01;100477.72;;;3.72;100.00
16200;BME280;8207;52.494;4.654;2024-02-26T06:49:28;100469.88;;;3.71;100.00
16200;BME280;8207;52.494;4.654;2024-02-26T06:51:54;100475.22;;;3.80;100.00
16200;BME280;8207;52.494;4.654;2024-02-26T06:54:20;100496.22;;;3.74;100.00
16200;BME280;8207;52.494;4.654;2024-02-26T06:56:45;100499.19;;;3.80;100.00
16200;BME280;8207;52.494;4.654;2024-02-26T06:59:11;100501.13;;;3.78;100.00
16200;BME280;8207;52.494;4.654;2024-02-26T07:01:36;100506.44;;;3.78;100.00
16200;BME280;8207;52.494;4.654;2024-02-26T07:04:05;100520.34;;;3.82;100.00
16200;BME280;8207;52.494;4.654;2024-02-26T07:06:30;100511.09;;;3.76;100.00
16200;BME280;8207;52.494;4.654;2024-02-26T07:08:55;100516.97;;;3.80;100.00
16200;BME280;8207;52.494;4.654;2024-02-26T07:11:21;100518.25;;;3.85;100.00
16200;BME280;8207;52.494;4.654;2024-02-26T07:13:46;100525.81;;;3.80;100.00
16200;BME280;8207;52.494;4.654;2024-02-26T07:16:12;100526.50;;;3.82;100.00
16200;BME280;8207;52.494;4.654;2024-02-26T07:18:39;100520.91;;;3.85;100.00
16200;BME280;8207;52.494;4.654;2024-02-26T07:21:05;100531.28;;;3.89;100.00
16200;BME280;8207;52.494;4.654;2024-02-26T07:23:31;100520.47;;;3.80;100.00
16200;BME280;8207;52.494;4.654;2024-02-26T07:25:56;100546.84;;;3.83;100.00
16200;BME280;8207;52.494;4.654;2024-02-26T07:28:22;100552.16;;;3.83;100.00
16200;BME280;8207;52.494;4.654;2024-02-26T07:30:47;100547.41;;;3.87;100.00
16200;BME280;8207;52.494;4.654;2024-02-26T07:33:12;100542.47;;;3.82;100.00
16200;BME280;8207;52.494;4.654;2024-02-26T07:35:38;100558.63;;;3.91;100.00
16200;BME280;8207;52.494;4.654;2024-02-26T07:38:04;100554.25;;;3.90;100.00
16200;BME280;8207;52.494;4.654;2024-02-26T07:40:29;100551.47;;;3.91;100.00
16200;BME280;8207;52.494;4.654;2024-02-26T07:42:55;100553.69;;;3.86;100.00
16200;BME280;8207;52.494;4.654;2024-02-26T07:45:21;100557.94;;;3.98;100.00
16200;BME280;8207;52.494;4.654;2024-02-26T07:47:49;100560.88;;;3.95;100.00
16200;BME280;8207;52.494;4.654;2024-02-26T07:50:16;100565.75;;;3.90;100.00
16200;BME280;8207;52.494;4.654;2024-02-26T07:52:41;100579.78;;;3.92;100.00
16200;BME280;8207;52.494;4.654;2024-02-26T07:55:07;100579.69;;;4.03;100.00
16200;BME280;8207;52.494;4.654;2024-02-26T07:57:35;100596.31;;;3.96;100.00
16200;BME280;8207;52.494;4.654;2024-02-26T08:00:02;100589.63;;;4.01;100.00
16200;BME280;8207;52.494;4.654;2024-02-26T08:02:28;100596.06;;;3.99;100.00
16200;BME280;8207;52.494;4.654;2024-02-26T08:04:53;100598.84;;;3.97;100.00
16200;BME280;8207;52.494;4.654;2024-02-26T08:07:19;100595.25;;;4.08;100.00
16200;BME280;8207;52.494;4.654;2024-02-26T08:09:46;100606.00;;;3.97;100.00
16200;BME280;8207;52.494;4.654;2024-02-26T08:12:12;100595.91;;;4.00;100.00
16200;BME280;8207;52.494;4.654;2024-02-26T08:14:37;100604.75;;;4.01;100.00
16200;BME280;8207;52.494;4.654;2024-02-26T08:17:03;100599.56;;;3.99;100.00
16200;BME280;8207;52.494;4.654;2024-02-26T08:19:28;100606.81;;;3.97;100.00
16200;BME280;8207;52.494;4.654;2024-02-26T08:21:53;100609.94;;;4.02;100.00
16200;BME280;8207;52.494;4.654;2024-02-26T08:24:19;100605.28;;;3.95;100.00
16200;BME280;8207;52.494;4.654;2024-02-26T08:26:45;100616.38;;;4.00;100.00
16200;BME280;8207;52.494;4.654;2024-02-26T08:29:10;100616.84;;;4.05;100.00
16200;BME280;8207;52.494;4.654;2024-02-26T08:31:35;100608.13;;;4.03;100.00
16200;BME280;8207;52.494;4.654;2024-02-26T08:34:03;100619.63;;;4.03;100.00
16200;BME280;8207;52.494;4.654;2024-02-26T08:36:29;100623.84;;;4.06;100.00
16200;BME280;8207;52.494;4.654;2024-02-26T08:38:56;100630.84;;;4.07;100.00
16200;BME280;8207;52.494;4.654;2024-02-26T08:41:21;100633.50;;;4.07;100.00
16200;BME280;8207;52.494;4.654;2024-02-26T08:43:47;100645.84;;;4.08;100.00
16200;BME280;8207;52.494;4.654;2024-02-26T08:46:12;100640.50;;;4.08;100.00
16200;BME280;8207;52.494;4.654;2024-02-26T08:48:39;100642.91;;;4.11;100.00
16200;BME280;8207;52.494;4.654;2024-02-26T08:51:06;100644.31;;;4.15;100.00
16200;BME280;8207;52.494;4.654;2024-02-26T08:53:32;100644.03;;;4.08;100.00
16200;BME280;8207;52.494;4.654;2024-02-26T08:55:57;100652.59;;;4.12;100.00
16200;BME280;8207;52.494;4.654;2024-02-26T08:58:22;100652.59;;;4.12;100.00
16200;BME280;8207;52.494;4.654;2024-02-26T09:00:48;100654.28;;;4.13;100.00
16200;BME280;8207;52.494;4.654;2024-02-26T09:03:13;100652.19;;;4.17;100.00
16200;BME280;8207;52.494;4.654;2024-02-26T09:05:38;100662.28;;;4.13;100.00
16200;BME280;8207;52.494;4.654;2024-02-26T09:08:04;100657.38;;;4.18;100.00
16200;BME280;8207;52.494;4.654;2024-02-26T09:10:29;100656.69;;;4.16;100.00
16200;BME280;8207;52.494;4.654;2024-02-26T09:12:55;100658.97;;;4.30;100.00
16200;BME280;8207;52.494;4.654;2024-02-26T09:15:20;100671.16;;;4.23;100.00
16200;BME280;8207;52.494;4.654;2024-02-26T09:17:45;100667.66;;;4.23;100.00
16200;BME280;8207;52.494;4.654;2024-02-26T09:20:11;100678.31;;;4.32;100.00
16200;BME280;8207;52.494;4.654;2024-02-26T09:22:38;100676.22;;;4.26;100.00
16200;BME280;8207;52.494;4.654;2024-02-26T09:25:04;100685.47;;;4.32;100.00
16200;BME280;8207;52.494;4.654;2024-02-26T09:27:30;100694.03;;;4.36;100.00
16200;BME280;8207;52.494;4.654;2024-02-26T09:29:55;100688.03;;;4.33;100.00
16200;BME280;8207;52.494;4.654;2024-02-26T09:32:21;100696.03;;;4.43;100.00
16200;BME280;8207;52.494;4.654;2024-02-26T09:34:46;100711.75;;;4.46;100.00
16200;BME280;8207;52.494;4.654;2024-02-26T09:37:11;100706.56;;;4.45;100.00
16200;BME280;8207;52.494;4.654;2024-02-26T09:39:38;100727.16;;;4.43;100.00
16200;BME280;8207;52.494;4.654;2024-02-26T09:42:04;100721.56;;;4.46;100.00
16200;BME280;8207;52.494;4.654;2024-02-26T09:44:31;100715.84;;;4.50;100.00
16200;BME280;8207;52.494;4.654;2024-02-26T09:47:02;100723.88;;;4.60;100.00
16200;BME280;8207;52.494;4.654;2024-02-26T09:49:28;100727.25;;;4.62;100.00
16200;BME280;8207;52.494;4.654;2024-02-26T09:51:54;100724.72;;;4.61;100.00
16200;BME280;8207;52.494;4.654;2024-02-26T09:54:21;100729.56;;;4.76;100.00
16200;BME280;8207;52.494;4.654;2024-02-26T09:56:49;100746.38;;;4.77;100.00
16200;BME280;8207;52.494;4.654;2024-02-26T09:59:17;100739.66;;;4.73;100.00
16200;BME280;8207;52.494;4.654;2024-02-26T10:01:44;100750.59;;;4.79;100.00
16200;BME280;8207;52.494;4.654;2024-02-26T10:04:12;100753.97;;;4.81;100.00
16200;BME280;8207;52.494;4.654;2024-02-26T10:06:37;100761.88;;;4.93;100.00
16200;BME280;8207;52.494;4.654;2024-02-26T10:09:03;100750.06;;;4.86;100.00
16200;BME280;8207;52.494;4.654;2024-02-26T10:11:31;100759.09;;;5.04;100.00
16200;BME280;8207;52.494;4.654;2024-02-26T10:13:57;100764.72;;;5.11;100.00
16200;BME280;8207;52.494;4.654;2024-02-26T10:16:22;100765.00;;;5.08;100.00
16200;BME280;8207;52.494;4.654;2024-02-26T10:18:52;100775.13;;;5.14;100.00
16200;BME280;8207;52.494;4.654;2024-02-26T10:21:21;100778.50;;;5.25;100.00
16200;BME280;8207;52.494;4.654;2024-02-26T10:23:47;100771.22;;;5.27;100.00
16200;BME280;8207;52.494;4.654;2024-02-26T10:26:14;100778.22;;;5.28;100.00
16200;BME280;8207;52.494;4.654;2024-02-26T10:28:41;100779.13;;;5.48;100.00
16200;BME280;8207;52.494;4.654;2024-02-26T10:31:08;100779.69;;;5.52;100.00
16200;BME280;8207;52.494;4.654;2024-02-26T10:33:34;100793.31;;;5.68;100.00
16200;BME280;8207;52.494;4.654;2024-02-26T10:36:02;100804.81;;;5.69;100.00
16200;BME280;8207;52.494;4.654;2024-02-26T10:38:27;100798.78;;;5.57;100.00
16200;BME280;8207;52.494;4.654;2024-02-26T10:40:53;100805.50;;;5.51;100.00
16200;BME280;8207;52.494;4.654;2024-02-26T10:43:18;100803.84;;;5.60;100.00
16200;BME280;8207;52.494;4.654;2024-02-26T10:45:44;100799.63;;;5.67;100.00
16200;BME280;8207;52.494;4.654;2024-02-26T10:48:12;100799.91;;;5.64;100.00
16200;BME280;8207;52.494;4.654;2024-02-26T10:50:38;100811.72;;;5.52;100.00
16200;BME280;8207;52.494;4.654;2024-02-26T10:53:05;100820.28;;;5.65;100.00
16200;BME280;8207;52.494;4.654;2024-02-26T10:55:34;100845.16;;;5.66;100.00
16200;BME280;8207;52.494;4.654;2024-02-26T10:58:01;100823.22;;;5.52;99.07
16200;BME280;8207;52.494;4.654;2024-02-26T11:00:28;100821.09;;;5.46;100.00
16200;BME280;8207;52.494;4.654;2024-02-26T11:02:55;100827.44;;;5.45;99.95
16200;BME280;8207;52.494;4.654;2024-02-26T11:05:23;100829.94;;;5.47;100.00
16200;BME280;8207;52.494;4.654;2024-02-26T11:07:50;100821.25;;;5.54;100.00
16200;BME280;8207;52.494;4.654;2024-02-26T11:10:16;100843.88;;;5.60;100.00
16200;BME280;8207;52.494;4.654;2024-02-26T11:12:42;100844.56;;;5.62;100.00
16200;BME280;8207;52.494;4.654;2024-02-26T11:15:09;100845.16;;;5.75;99.89
16200;BME280;8207;52.494;4.654;2024-02-26T11:17:35;100849.94;;;5.72;99.38
16200;BME280;8207;52.494;4.654;2024-02-26T11:20:01;100849.38;;;5.78;99.77
16200;BME280;8207;52.494;4.654;2024-02-26T11:22:30;100847.72;;;5.77;99.95
16200;BME280;8207;52.494;4.654;2024-02-26T11:24:57;100853.31;;;5.64;99.00
16200;BME280;8207;52.494;4.654;2024-02-26T11:27:26;100840.19;;;5.51;99.93
16200;BME280;8207;52.494;4.654;2024-02-26T11:29:56;100867.91;;;5.60;100.00
16200;BME280;8207;52.494;4.654;2024-02-26T11:32:23;100860.78;;;5.70;99.72
16200;BME280;8207;52.494;4.654;2024-02-26T11:34:48;100860.06;;;5.68;99.24
16200;BME280;8207;52.494;4.654;2024-02-26T11:37:16;100872.25;;;5.61;99.17
16200;BME280;8207;52.494;4.654;2024-02-26T11:39:42;100865.66;;;5.56;99.90
16200;BME280;8207;52.494;4.654;2024-02-26T11:42:09;100865.38;;;5.68;100.00
16200;BME280;8207;52.494;4.654;2024-02-26T11:44:36;100871.84;;;5.66;99.56
16200;BME280;8207;52.494;4.654;2024-02-26T11:49:36;100871.44;;;5.70;99.73
16200;BME280;8207;52.494;4.654;2024-02-26T11:52:05;100873.00;;;5.83;99.35
16200;BME280;8207;52.494;4.654;2024-02-26T11:54:52;100870.47;;;5.71;100.00
16200;BME280;8207;52.494;4.654;2024-02-26T11:57:37;100878.47;;;5.71;100.00
16200;BME280;8207;52.494;4.654;2024-02-26T12:05:14;100872.63;;;5.97;100.00
16200;BME280;8207;52.494;4.654;2024-02-26T12:07:44;100879.47;;;5.90;100.00
16200;BME280;8207;52.494;4.654;2024-02-26T12:10:14;100884.16;;;5.97;100.00
16200;BME280;8207;52.494;4.654;2024-02-26T12:12:41;100877.28;;;5.95;100.00
16200;BME280;8207;52.494;4.654;2024-02-26T12:15:08;100884.56;;;5.93;98.56
16200;BME280;8207;52.494;4.654;2024-02-26T12:17:34;100891.34;;;6.07;95.76
16200;BME280;8207;52.494;4.654;2024-02-26T12:20:10;100889.78;;;6.14;94.24
16200;BME280;8207;52.494;4.654;2024-02-26T12:22:39;100899.06;;;6.00;94.71
16200;BME280;8207;52.494;4.654;2024-02-26T12:25:06;100888.66;;;5.97;94.89
16200;BME280;8207;52.494;4.654;2024-02-26T12:27:31;100894.44;;;6.02;95.02
16200;BME280;8207;52.494;4.654;2024-02-26T12:29:56;100900.72;;;5.91;95.24
16200;BME280;8207;52.494;4.654;2024-02-26T12:32:23;100908.84;;;5.90;93.89
16200;BME280;8207;52.494;4.654;2024-02-26T12:34:48;100907.03;;;5.90;94.03
16200;BME280;8207;52.494;4.654;2024-02-26T12:37:15;100915.78;;;5.92;94.14
16200;BME280;8207;52.494;4.654;2024-02-26T12:39:41;100915.25;;;5.98;94.76
16200;BME280;8207;52.494;4.654;2024-02-26T12:42:07;100909.28;;;5.85;94.89
16200;BME280;8207;52.494;4.654;2024-02-26T12:44:32;100923.88;;;5.91;95.37
16200;BME280;8207;52.494;4.654;2024-02-26T12:47:04;100919.41;;;5.91;95.00
16200;BME280;8207;52.494;4.654;2024-02-26T12:49:30;100925.59;;;5.92;93.82
16200;BME280;8207;52.494;4.654;2024-02-26T12:51:55;100935.06;;;5.96;94.29
16200;BME280;8207;52.494;4.654;2024-02-26T12:54:27;100935.06;;;5.96;95.69
16200;BME280;8207;52.494;4.654;2024-02-26T12:56:54;100929.28;;;6.00;95.91
16200;BME280;8207;52.494;4.654;2024-02-26T12:59:20;100937.88;;;6.04;95.93
16200;BME280;8207;52.494;4.654;2024-02-26T13:01:46;100928.59;;;5.98;95.86
16200;BME280;8207;52.494;4.654;2024-02-26T13:04:11;100949.69;;;6.11;95.39